createdAt,value
2022-12-31T00:02:42.690Z,79.8
2022-12-31T00:12:41.741Z,80.2
2022-12-31T00:17:41.714Z,80.2
2022-12-31T00:22:41.748Z,80.2
2022-12-31T00:27:41.743Z,80.2
2022-12-31T00:32:42.468Z,80.1
2022-12-31T00:37:41.802Z,80.1
2022-12-31T00:42:41.672Z,80.1
2022-12-31T00:47:42.464Z,80.1
2022-12-31T00:52:42.717Z,80.2
2022-12-31T00:57:41.729Z,80.4
2022-12-31T01:02:41.808Z,80.5
2022-12-31T01:07:41.738Z,80.5
2022-12-31T01:12:41.716Z,80.5
2022-12-31T01:17:43.111Z,80.5
2022-12-31T01:22:41.607Z,80.5
2022-12-31T01:27:41.696Z,80.5
2022-12-31T01:32:42.432Z,80.5
2022-12-31T01:37:41.523Z,80.5
2022-12-31T01:42:41.644Z,80.5
2022-12-31T01:47:41.850Z,80.6
2022-12-31T01:52:41.615Z,80.8
2022-12-31T01:57:41.569Z,80.7
2022-12-31T02:02:41.840Z,80.8
2022-12-31T02:07:41.624Z,80.7
2022-12-31T02:12:41.697Z,80.8
2022-12-31T02:17:41.527Z,80.8
2022-12-31T02:22:41.636Z,80.9
2022-12-31T02:27:41.599Z,80.9
2022-12-31T02:32:41.516Z,81.0
2022-12-31T02:37:41.916Z,81.1
2022-12-31T02:42:41.575Z,81.1
2022-12-31T02:47:41.565Z,81.2
2022-12-31T02:52:41.653Z,81.3
2022-12-31T02:57:41.656Z,81.3
2022-12-31T03:02:41.890Z,81.2
2022-12-31T03:07:41.754Z,81.2
2022-12-31T03:12:41.412Z,81.1
2022-12-31T03:17:41.387Z,81.2
2022-12-31T03:22:41.587Z,81.3
2022-12-31T03:27:41.438Z,81.4
2022-12-31T03:32:41.364Z,81.6
2022-12-31T03:37:42.565Z,81.7
2022-12-31T03:42:41.337Z,81.5
2022-12-31T03:47:41.494Z,81.5
2022-12-31T03:52:41.295Z,81.6
2022-12-31T03:57:41.414Z,81.7
2022-12-31T04:02:41.618Z,81.8
2022-12-31T04:07:41.383Z,81.8
2022-12-31T04:12:41.289Z,81.9
2022-12-31T04:17:41.413Z,81.9
2022-12-31T04:22:41.540Z,82.0
2022-12-31T04:27:41.513Z,82.1
2022-12-31T04:32:41.275Z,82.6
2022-12-31T04:37:41.370Z,82.9
2022-12-31T04:42:41.250Z,82.8
2022-12-31T04:47:41.614Z,82.9
2022-12-31T04:52:43.043Z,82.9
2022-12-31T04:57:41.226Z,82.9
2022-12-31T05:02:41.582Z,82.8
2022-12-31T05:07:41.307Z,82.8
2022-12-31T05:12:41.258Z,82.9
2022-12-31T05:17:41.433Z,82.9
2022-12-31T05:22:41.290Z,82.9
2022-12-31T05:27:41.222Z,83.0
2022-12-31T05:32:41.144Z,83.0
2022-12-31T05:37:41.220Z,83.0
2022-12-31T05:42:41.164Z,82.9
2022-12-31T05:47:41.307Z,83.0
2022-12-31T05:52:47.153Z,83.0
2022-12-31T05:57:41.143Z,82.9
2022-12-31T06:02:41.366Z,82.9
2022-12-31T06:07:41.144Z,82.8
2022-12-31T06:12:41.168Z,82.8
2022-12-31T06:17:41.327Z,82.7
2022-12-31T06:22:41.127Z,82.8
2022-12-31T06:27:41.116Z,82.9
2022-12-31T06:32:41.261Z,82.9
2022-12-31T06:37:41.160Z,83.0
2022-12-31T06:42:41.122Z,82.9
2022-12-31T06:47:41.883Z,82.7
2022-12-31T06:52:41.138Z,82.6
2022-12-31T06:57:41.072Z,82.6
2022-12-31T07:02:41.437Z,82.7
2022-12-31T07:07:41.103Z,82.8
2022-12-31T07:12:40.951Z,82.9
2022-12-31T07:17:41.252Z,82.9
2022-12-31T07:22:41.070Z,82.9
2022-12-31T07:27:41.051Z,82.9
2022-12-31T07:32:41.183Z,82.9
2022-12-31T07:37:41.023Z,82.8
2022-12-31T07:42:41.065Z,82.8
2022-12-31T07:47:41.196Z,82.8
2022-12-31T07:52:40.970Z,82.6
2022-12-31T07:57:40.983Z,82.6
2022-12-31T08:02:41.252Z,82.6
2022-12-31T08:07:41.105Z,82.6
2022-12-31T08:12:40.947Z,82.6
2022-12-31T08:17:41.141Z,82.6
2022-12-31T08:22:41.052Z,82.6
2022-12-31T08:27:41.078Z,82.4
2022-12-31T08:32:41.243Z,82.2
2022-12-31T08:37:41.208Z,81.9
2022-12-31T08:42:40.870Z,81.9
2022-12-31T08:47:40.889Z,81.9
2022-12-31T08:52:40.971Z,81.8
2022-12-31T08:57:40.902Z,81.6
2022-12-31T09:02:46.267Z,81.5
2022-12-31T09:07:40.890Z,81.4
2022-12-31T09:12:40.841Z,81.4
2022-12-31T09:17:40.974Z,81.4
2022-12-31T09:22:40.849Z,81.3
2022-12-31T09:27:40.887Z,81.3
2022-12-31T09:32:41.205Z,81.4
2022-12-31T09:37:40.841Z,81.3
2022-12-31T09:42:41.084Z,81.3
2022-12-31T09:47:40.709Z,81.2
2022-12-31T09:52:41.334Z,81.2
2022-12-31T09:57:41.727Z,81.2
2022-12-31T10:02:41.895Z,81.1
2022-12-31T10:07:48.788Z,81.2
2022-12-31T10:12:43.035Z,81.1
2022-12-31T10:17:44.379Z,81.1
2022-12-31T10:22:43.757Z,81.2
2022-12-31T10:27:43.446Z,81.1
2022-12-31T10:32:40.713Z,81.1
2022-12-31T10:37:43.481Z,81.0
2022-12-31T10:42:46.146Z,80.9
2022-12-31T10:47:45.632Z,80.9
2022-12-31T10:52:46.347Z,81.0
2022-12-31T11:02:40.736Z,80.9
2022-12-31T11:07:40.724Z,80.8
2022-12-31T11:12:40.643Z,80.7
2022-12-31T11:17:40.556Z,80.7
2022-12-31T11:22:40.748Z,80.6
2022-12-31T11:27:42.696Z,80.6
2022-12-31T11:32:40.570Z,80.5
2022-12-31T11:37:40.685Z,80.4
2022-12-31T11:42:40.501Z,80.2
2022-12-31T11:47:56.497Z,80.3
2022-12-31T11:52:40.631Z,80.2
2022-12-31T11:57:40.556Z,80.2
2022-12-31T12:02:40.591Z,79.7
2022-12-31T12:07:40.680Z,79.8
2022-12-31T12:12:40.507Z,79.8
2022-12-31T12:17:40.505Z,79.7
2022-12-31T12:22:43.846Z,79.7
2022-12-31T12:27:40.477Z,79.7
2022-12-31T12:32:40.518Z,79.6
2022-12-31T12:37:40.635Z,79.6
2022-12-31T12:42:40.478Z,79.6
2022-12-31T12:47:40.558Z,79.3
2022-12-31T12:52:40.534Z,79.1
2022-12-31T12:57:40.545Z,79.0
2022-12-31T13:02:40.800Z,79.0
2022-12-31T13:07:40.715Z,78.8
2022-12-31T13:13:13.880Z,78.9
2022-12-31T13:17:40.523Z,78.9
2022-12-31T13:22:40.592Z,78.8
2022-12-31T13:27:40.506Z,78.8
2022-12-31T13:32:40.779Z,78.8
2022-12-31T13:37:40.819Z,78.8
2022-12-31T13:42:40.449Z,78.8
2022-12-31T13:47:40.541Z,78.7
2022-12-31T13:52:40.721Z,78.7
2022-12-31T13:57:40.388Z,78.7
2022-12-31T14:02:40.857Z,78.7
2022-12-31T14:07:45.782Z,78.7
2022-12-31T14:12:41.499Z,78.8
2022-12-31T14:17:40.305Z,78.7
2022-12-31T14:22:40.336Z,78.6
2022-12-31T14:27:40.368Z,78.5
2022-12-31T14:32:40.387Z,78.5
2022-12-31T14:37:40.603Z,78.5
2022-12-31T14:42:40.234Z,78.6
2022-12-31T14:47:40.370Z,78.7
2022-12-31T14:52:40.425Z,78.6
2022-12-31T14:58:09.668Z,78.7
2022-12-31T15:02:40.390Z,78.6
2022-12-31T15:07:40.342Z,78.6
2022-12-31T15:12:40.270Z,78.7
2022-12-31T15:17:40.208Z,78.7
2022-12-31T15:22:41.217Z,78.7
2022-12-31T15:33:11.001Z,78.8
2022-12-31T15:37:47.852Z,78.8
2022-12-31T15:47:40.258Z,78.8
2022-12-31T15:52:40.209Z,78.7
2022-12-31T15:57:40.321Z,78.8
2022-12-31T16:02:41.562Z,78.9
2022-12-31T16:07:40.111Z,79.0
2022-12-31T16:12:44.541Z,79.0
2022-12-31T16:17:40.061Z,78.9
2022-12-31T16:22:40.320Z,78.9
2022-12-31T16:27:40.223Z,78.9
2022-12-31T16:32:40.098Z,78.8
2022-12-31T16:37:40.027Z,78.8
2022-12-31T16:42:44.356Z,78.8
2022-12-31T16:47:40.038Z,78.8
2022-12-31T16:52:40.076Z,78.9
2022-12-31T16:57:40.144Z,78.8
2022-12-31T17:02:40.182Z,78.9
2022-12-31T17:07:39.982Z,78.9
2022-12-31T17:13:00.972Z,78.9
2022-12-31T17:17:40.005Z,78.8
2022-12-31T17:22:39.953Z,78.7
2022-12-31T17:27:40.994Z,78.7
2022-12-31T17:32:39.951Z,78.7
2022-12-31T17:37:39.981Z,78.7
2022-12-31T17:42:39.957Z,78.6
2022-12-31T17:47:39.960Z,78.5
2022-12-31T17:52:40.299Z,78.5
2022-12-31T17:57:39.948Z,78.5
2022-12-31T18:02:40.088Z,78.4
2022-12-31T18:07:39.903Z,78.4
2022-12-31T18:12:39.897Z,78.3
2022-12-31T18:17:40.004Z,78.3
2022-12-31T18:22:40.222Z,78.2
2022-12-31T18:27:39.904Z,78.2
2022-12-31T18:32:40.170Z,78.2
2022-12-31T18:37:39.895Z,78.2
2022-12-31T18:42:39.885Z,78.2
2022-12-31T18:47:40.259Z,78.2
2022-12-31T18:52:39.873Z,78.2
2022-12-31T18:57:40.545Z,78.1
2022-12-31T19:02:39.999Z,78.2
2022-12-31T19:07:39.811Z,78.2
2022-12-31T19:12:39.790Z,78.1
2022-12-31T19:17:39.894Z,78.2
2022-12-31T19:22:40.267Z,78.2
2022-12-31T19:27:39.767Z,78.3
2022-12-31T19:32:39.758Z,78.2
2022-12-31T19:37:42.414Z,78.1
2022-12-31T19:42:39.763Z,78.3
2022-12-31T19:47:40.341Z,78.2
2022-12-31T19:52:39.799Z,78.1
2022-12-31T19:57:40.460Z,78.1
2022-12-31T20:02:41.159Z,78.0
2022-12-31T20:07:39.735Z,78.0
2022-12-31T20:12:44.365Z,77.9
2022-12-31T20:17:40.113Z,78.0
2022-12-31T20:22:39.660Z,78.0
2022-12-31T20:27:39.693Z,78.0
2022-12-31T20:32:39.835Z,77.9
2022-12-31T20:37:39.637Z,77.9
2022-12-31T20:42:39.684Z,77.9
2022-12-31T20:47:39.714Z,77.9
2022-12-31T20:52:39.677Z,77.8
2022-12-31T20:57:40.586Z,77.8
2022-12-31T21:02:42.745Z,78.0
2022-12-31T21:07:39.616Z,77.7
2022-12-31T21:12:39.621Z,77.6
2022-12-31T21:17:39.717Z,77.5
2022-12-31T21:22:39.598Z,77.5
2022-12-31T21:27:39.616Z,77.6
2022-12-31T21:32:39.674Z,77.6
2022-12-31T21:37:57.417Z,77.6
2022-12-31T21:42:41.526Z,77.6
2022-12-31T21:47:47.247Z,77.5
2022-12-31T21:52:39.592Z,77.5
2022-12-31T21:58:07.128Z,77.5
2022-12-31T22:02:39.998Z,77.5
2022-12-31T22:07:40.645Z,77.5
2022-12-31T22:12:39.527Z,77.3
2022-12-31T22:17:39.937Z,77.2
2022-12-31T22:22:39.632Z,77.1
2022-12-31T22:27:39.557Z,77.0
2022-12-31T22:32:39.665Z,76.9
2022-12-31T22:37:57.106Z,76.9
2022-12-31T22:42:39.567Z,77.0
2022-12-31T22:47:39.632Z,77.0
2022-12-31T22:52:39.432Z,76.9
2022-12-31T22:57:39.581Z,76.9
2022-12-31T23:02:41.890Z,77.0
2022-12-31T23:07:39.714Z,76.9
2022-12-31T23:12:39.421Z,76.9
2022-12-31T23:17:39.427Z,76.9
2022-12-31T23:22:39.511Z,76.8
2022-12-31T23:27:39.415Z,76.7
2022-12-31T23:32:39.372Z,76.7
2022-12-31T23:37:39.440Z,76.6
2022-12-31T23:42:39.411Z,76.5
2022-12-31T23:47:40.329Z,76.5
2022-12-31T23:52:39.332Z,76.5
2022-12-31T23:57:39.333Z,76.4
